This is the latest recevied weather packets stored in our database for station/object VK5TRM-13. If no packets are shown the sender has not sent any weather packets the latest 10 day(s).
| Time | Temp. | Humidity | Pressure | Rain* | Wind** | Luminosity | Snow |
|---|---|---|---|---|---|---|---|
| 1777716904 | 17.22° C | 90% | 1011.6 hPa | 3.3 mm | - | - | - |
| 1777716005 | 17.22° C | 90% | 1011.6 hPa | 3.3 mm | - | - | - |
| 1777715106 | 17.22° C | 90% | 1011.6 hPa | 3.3 mm | - | - | - |
| 1777714204 | 17.78° C | 89% | 1011.6 hPa | 3.05 mm | - | - | - |
| 1777713304 | 17.78° C | 89% | 1011.6 hPa | 3.05 mm | - | - | - |
| 1777712404 | 18.33° C | 85% | 1011.3 hPa | 2.03 mm | - | - | - |
| 1777711505 | 18.33° C | 85% | 1011.3 hPa | 2.03 mm | - | - | - |
| 1777710604 | 20.56° C | 73% | 1010.8 hPa | 0.51 mm | - | - | - |
| 1777709704 | 20.56° C | 73% | 1010.8 hPa | 0.51 mm | - | - | - |
| 1777708804 | 20.56° C | 74% | 1009.8 hPa | 0.51 mm | - | - | - |
| 1777707905 | 20.56° C | 74% | 1009.8 hPa | 0.51 mm | - | - | - |
| 1777707005 | 21.67° C | 64% | 1009.9 hPa | 0.25 mm | - | - | - |
| 1777706105 | 21.67° C | 64% | 1009.9 hPa | 0.25 mm | - | - | - |
| 1777705204 | 22.22° C | 60% | 1009.7 hPa | 0.25 mm | - | - | - |
| 1777704304 | 22.22° C | 60% | 1009.7 hPa | 0.25 mm | - | - | - |
| 1777703404 | 22.22° C | 65% | 1009.8 hPa | 0.25 mm | - | - | - |
| 1777702504 | 22.22° C | 65% | 1009.8 hPa | 0.25 mm | - | - | - |
| 1777701605 | 20.56° C | 76% | 1009.9 hPa | 0.25 mm | - | - | - |
| 1777700706 | 20.56° C | 76% | 1009.9 hPa | 0.25 mm | - | - | - |
| 1777699805 | 20° C | 74% | 1010.3 hPa | 0.25 mm | - | - | - |
| 1777698906 | 20° C | 74% | 1010.3 hPa | 0.25 mm | - | - | - |
| 1777698004 | 21.67° C | 64% | 1010.6 hPa | 0 mm | - | - | - |
| 1777697104 | 21.67° C | 64% | 1010.6 hPa | 0 mm | - | - | - |
| 1777696205 | 22.78° C | 54% | 1010.5 hPa | 0 mm | - | - | - |
| 1777695305 | 22.78° C | 54% | 1010.5 hPa | 0 mm | - | - | - |
* Rain since midnight (hover to see other rain measurements)
** Current wind speed in m/s (hover to see current wind gust speed)